Time;durP1;ratioP1;P1;durP2;ratioP2;P2;SDS_P1;SDS_P2;PMS_P1;PMS_P2;Temp;Humidity;BMP_temperature;BMP_pressure;BME280_temperature;BME280_humidity;BME280_pressure;Samples;Min_cycle;Max_cycle;Signal;HPM_P1;HPM_P2
2022/07/31 00:00:18;;;;;;;18.35;12.32;;;16.30;99.90;;;;;;5094484;28;20022;-75
2022/07/31 00:02:44;;;;;;;19.08;13.10;;;16.30;99.90;;;;;;5092851;28;20047;-72
2022/07/31 00:05:10;;;;;;;22.33;12.60;;;16.20;99.90;;;;;;5094456;28;20032;-73
2022/07/31 00:07:36;;;;;;;22.45;13.95;;;16.20;99.90;;;;;;5092964;28;20477;-72
2022/07/31 00:10:03;;;;;;;21.90;13.98;;;16.20;99.90;;;;;;5093756;28;20016;-72
2022/07/31 00:12:28;;;;;;;24.58;14.27;;;16.20;99.90;;;;;;5093619;28;20115;-76
2022/07/31 00:14:54;;;;;;;25.67;14.63;;;16.20;99.90;;;;;;5094114;28;20095;-73
2022/07/31 00:17:20;;;;;;;23.88;13.43;;;16.20;99.90;;;;;;5092666;28;20120;-75
2022/07/31 00:19:46;;;;;;;22.85;13.18;;;16.20;99.90;;;;;;5092356;28;20024;-72
2022/07/31 00:22:12;;;;;;;20.63;12.57;;;16.10;99.90;;;;;;5088984;28;20077;-76
2022/07/31 00:24:38;;;;;;;21.48;12.80;;;16.10;99.90;;;;;;5093759;28;20032;-77
2022/07/31 00:27:04;;;;;;;23.08;13.90;;;16.10;99.90;;;;;;5093783;28;20077;-76
2022/07/31 00:29:30;;;;;;;21.52;11.82;;;16.10;99.90;;;;;;5092714;28;20024;-76
2022/07/31 00:31:56;;;;;;;18.10;12.73;;;16.10;99.90;;;;;;5092504;28;20114;-71
2022/07/31 00:34:22;;;;;;;20.35;12.98;;;16.10;99.90;;;;;;5093865;28;20060;-72
2022/07/31 00:36:48;;;;;;;24.05;13.57;;;16.10;99.90;;;;;;5093376;28;20020;-76
2022/07/31 00:39:14;;;;;;;15.63;11.25;;;16.10;99.90;;;;;;5092903;28;20095;-76
2022/07/31 00:41:44;;;;;;;20.95;13.30;;;16.10;99.90;;;;;;5093644;28;20385;-71
2022/07/31 00:44:11;;;;;;;20.63;13.05;;;16.10;99.90;;;;;;5093502;28;20031;-76
2022/07/31 00:46:37;;;;;;;19.65;12.32;;;16.10;99.90;;;;;;5092253;28;20389;-72
2022/07/31 00:49:03;;;;;;;22.60;12.65;;;16.10;99.90;;;;;;5093303;28;20031;-70
2022/07/31 00:51:29;;;;;;;21.52;12.90;;;16.10;99.90;;;;;;5093314;28;20020;-72
2022/07/31 00:53:54;;;;;;;25.27;16.00;;;16.10;99.90;;;;;;5093304;28;20078;-75
2022/07/31 00:56:20;;;;;;;28.65;15.63;;;16.10;99.90;;;;;;5093540;28;20468;-75
2022/07/31 00:58:46;;;;;;;23.15;13.02;;;16.10;99.90;;;;;;5093264;28;20063;-75
2022/07/31 01:01:12;;;;;;;27.73;13.82;;;16.00;99.90;;;;;;5093238;28;20024;-76
2022/07/31 01:03:38;;;;;;;21.38;13.00;;;16.10;99.90;;;;;;5092064;28;20031;-75
2022/07/31 01:06:06;;;;;;;18.45;12.90;;;16.10;99.90;;;;;;5093242;28;20485;-74
2022/07/31 01:08:31;;;;;;;22.50;13.52;;;16.00;99.90;;;;;;5093065;28;20016;-72
2022/07/31 01:11:00;;;;;;;16.92;10.13;;;16.00;99.90;;;;;;5093395;28;20106;-75
2022/07/31 01:13:34;;;;;;;17.05;10.77;;;16.10;99.90;;;;;;5091904;28;20031;-72
2022/07/31 01:16:02;;;;;;;15.18;10.95;;;16.00;99.90;;;;;;5093297;28;20016;-75
2022/07/31 01:18:33;;;;;;;15.43;11.88;;;16.00;99.90;;;;;;5093103;28;20099;-72
2022/07/31 01:21:04;;;;;;;20.13;10.90;;;16.10;99.90;;;;;;5093288;28;20027;-76
2022/07/31 01:23:36;;;;;;;13.30;9.38;;;16.00;99.90;;;;;;5093239;28;20016;-76
2022/07/31 01:26:01;;;;;;;15.57;9.93;;;16.00;99.90;;;;;;5093187;28;20028;-76
2022/07/31 01:28:49;;;;;;;17.48;11.63;;;16.00;99.90;;;;;;5092987;28;20031;-72
2022/07/31 01:31:24;;;;;;;13.50;10.40;;;16.00;99.90;;;;;;5093137;28;20024;-72
2022/07/31 01:33:55;;;;;;;13.50;9.57;;;16.00;99.90;;;;;;5091783;28;20089;-75
2022/07/31 01:36:25;;;;;;;16.23;10.75;;;16.00;99.90;;;;;;5091878;28;20043;-72
2022/07/31 01:38:54;;;;;;;13.07;10.57;;;16.00;99.90;;;;;;5092966;28;20020;-72
2022/07/31 01:41:25;;;;;;;14.15;10.75;;;16.00;99.90;;;;;;5093082;28;20374;-72
2022/07/31 01:43:54;;;;;;;10.32;8.23;;;16.00;99.90;;;;;;5093094;28;20024;-72
2022/07/31 01:46:22;;;;;;;10.68;9.18;;;16.10;99.90;;;;;;5091730;28;20146;-72
2022/07/31 01:48:48;;;;;;;13.85;9.93;;;16.10;99.90;;;;;;5093232;28;20028;-72
2022/07/31 01:51:16;;;;;;;11.30;9.18;;;16.10;99.90;;;;;;5095510;28;20027;-75
2022/07/31 01:53:46;;;;;;;13.10;9.45;;;16.10;99.90;;;;;;5095330;28;20055;-75
2022/07/31 01:56:12;;;;;;;8.30;7.32;;;16.10;99.90;;;;;;5096814;28;20501;-72
2022/07/31 01:58:41;;;;;;;8.95;7.47;;;16.00;99.90;;;;;;5095315;28;20393;-75
2022/07/31 02:01:08;;;;;;;8.20;5.72;;;16.00;99.90;;;;;;5096707;28;20538;-76
2022/07/31 02:03:36;;;;;;;6.03;5.03;;;16.00;99.90;;;;;;5096499;28;20024;-72
2022/07/31 02:06:03;;;;;;;4.95;4.47;;;16.00;99.90;;;;;;5096541;28;20060;-75
2022/07/31 02:08:30;;;;;;;4.03;3.63;;;16.00;99.90;;;;;;5096356;28;20069;-76
2022/07/31 02:10:58;;;;;;;3.70;3.25;;;16.00;99.90;;;;;;5096575;28;20373;-72
2022/07/31 02:13:26;;;;;;;3.10;2.90;;;16.00;99.90;;;;;;5096388;28;20112;-73
2022/07/31 02:15:53;;;;;;;2.90;2.80;;;16.00;99.90;;;;;;5096503;28;20052;-75
2022/07/31 02:18:20;;;;;;;2.72;2.53;;;16.00;99.90;;;;;;5096239;28;20058;-75
2022/07/31 02:20:49;;;;;;;3.08;2.88;;;16.00;99.90;;;;;;5096175;28;20032;-73
2022/07/31 02:23:16;;;;;;;2.58;2.35;;;16.00;99.90;;;;;;5096382;28;20020;-73
2022/07/31 02:25:43;;;;;;;2.25;2.15;;;15.90;99.90;;;;;;5094862;28;20031;-75
2022/07/31 02:28:12;;;;;;;3.00;2.67;;;15.80;99.90;;;;;;5096269;28;20016;-72
2022/07/31 02:30:41;;;;;;;2.72;2.53;;;15.90;99.90;;;;;;5096075;28;20027;-73
2022/07/31 02:33:16;;;;;;;3.63;3.33;;;15.80;99.90;;;;;;5094957;28;20032;-76
2022/07/31 02:35:44;;;;;;;3.10;2.90;;;15.80;99.90;;;;;;5094791;28;20016;-75
2022/07/31 02:38:11;;;;;;;3.20;3.00;;;15.70;99.90;;;;;;5094674;28;20028;-75
2022/07/31 02:40:38;;;;;;;3.67;3.33;;;15.70;99.90;;;;;;5095887;28;20135;-75
2022/07/31 02:43:04;;;;;;;2.72;2.50;;;15.70;99.90;;;;;;5094682;28;20039;-72
2022/07/31 02:45:30;;;;;;;2.10;2.00;;;15.70;99.90;;;;;;5094512;28;20431;-76
2022/07/31 02:47:56;;;;;;;1.40;1.30;;;15.60;99.90;;;;;;5094522;28;20017;-75
2022/07/31 02:50:22;;;;;;;1.40;1.30;;;15.50;99.90;;;;;;5095638;28;20028;-75
2022/07/31 02:52:48;;;;;;;1.85;1.15;;;15.50;99.90;;;;;;5095484;28;20051;-75
2022/07/31 02:55:14;;;;;;;1.15;1.15;;;15.50;99.90;;;;;;5095520;28;20435;-73
2022/07/31 02:57:40;;;;;;;1.10;1.10;;;15.40;99.90;;;;;;5095770;28;20024;-75
2022/07/31 03:00:21;;;;;;;1.10;1.08;;;15.40;99.90;;;;;;5095067;28;20069;-75
2022/07/31 03:02:51;;;;;;;0.98;0.98;;;15.40;99.90;;;;;;5095356;28;20055;-75
2022/07/31 03:05:17;;;;;;;1.30;1.20;;;15.40;99.90;;;;;;5094219;28;20070;-73
2022/07/31 03:07:43;;;;;;;1.17;1.17;;;15.30;99.90;;;;;;5094122;28;20080;-75
2022/07/31 03:10:09;;;;;;;2.08;1.33;;;15.40;99.90;;;;;;5095363;28;20077;-73
2022/07/31 03:12:38;;;;;;;1.40;1.30;;;15.30;99.90;;;;;;5093959;28;20020;-72
2022/07/31 03:15:12;;;;;;;1.65;1.52;;;15.40;99.90;;;;;;5094005;28;20565;-72
2022/07/31 03:17:39;;;;;;;1.50;1.40;;;15.30;99.90;;;;;;5094097;28;20024;-75
2022/07/31 03:20:07;;;;;;;1.67;1.58;;;15.30;99.90;;;;;;5095109;28;20466;-72
2022/07/31 03:22:33;;;;;;;1.52;1.45;;;15.30;99.90;;;;;;5095032;28;20032;-72
2022/07/31 03:25:01;;;;;;;1.95;1.30;;;15.30;99.90;;;;;;5093704;28;20028;-72
2022/07/31 03:27:27;;;;;;;2.17;1.15;;;15.20;99.90;;;;;;5095208;28;20374;-72
2022/07/31 03:29:53;;;;;;;1.60;0.90;;;15.20;99.90;;;;;;5094996;28;20024;-72
2022/07/31 03:32:19;;;;;;;0.95;0.95;;;15.20;99.90;;;;;;5095027;28;20020;-75
2022/07/31 03:34:45;;;;;;;1.00;1.00;;;15.10;99.90;;;;;;5093453;28;20055;-72
2022/07/31 03:37:11;;;;;;;1.00;1.00;;;15.20;99.90;;;;;;5094897;28;20016;-72
2022/07/31 03:39:37;;;;;;;1.17;0.80;;;15.10;99.90;;;;;;5094846;28;20465;-72
2022/07/31 03:42:03;;;;;;;0.90;0.90;;;15.10;99.90;;;;;;5094641;28;20028;-72
2022/07/31 03:44:31;;;;;;;1.38;1.17;;;15.10;99.90;;;;;;5094685;28;20085;-73
2022/07/31 03:46:58;;;;;;;1.20;1.10;;;15.10;99.90;;;;;;5094759;28;20020;-75
2022/07/31 03:49:24;;;;;;;1.48;1.00;;;15.10;99.90;;;;;;5094682;28;20102;-75
2022/07/31 03:51:49;;;;;;;1.10;1.05;;;15.10;99.90;;;;;;5092939;28;20043;-72
2022/07/31 03:54:15;;;;;;;1.15;1.15;;;15.10;99.90;;;;;;5094620;28;20020;-75
2022/07/31 03:56:45;;;;;;;1.15;1.15;;;15.00;99.90;;;;;;5094286;28;20563;-72
2022/07/31 03:59:12;;;;;;;2.15;1.40;;;15.00;99.90;;;;;;5094520;28;20020;-75
2022/07/31 04:01:37;;;;;;;1.50;1.40;;;15.00;99.90;;;;;;5092979;28;20028;-75
2022/07/31 04:04:03;;;;;;;1.98;1.50;;;15.00;99.90;;;;;;5094264;28;20493;-75
2022/07/31 04:06:29;;;;;;;2.33;2.13;;;15.00;99.90;;;;;;5094065;28;20035;-73
2022/07/31 04:08:55;;;;;;;2.30;2.15;;;15.00;99.90;;;;;;5092921;28;20020;-75
2022/07/31 04:11:20;;;;;;;2.65;2.55;;;15.00;99.90;;;;;;5094085;28;20028;-73
2022/07/31 04:13:46;;;;;;;2.22;2.13;;;15.00;99.90;;;;;;5093972;28;20024;-72
2022/07/31 04:16:12;;;;;;;3.17;2.92;;;14.90;99.90;;;;;;5094111;28;20483;-73
2022/07/31 04:18:38;;;;;;;2.88;2.67;;;15.00;99.90;;;;;;5094087;28;20052;-73
2022/07/31 04:21:04;;;;;;;2.40;2.30;;;14.90;99.90;;;;;;5092534;28;20016;-73
2022/07/31 04:23:29;;;;;;;2.95;2.75;;;15.00;99.90;;;;;;5092867;28;20043;-72
2022/07/31 04:25:55;;;;;;;3.63;2.70;;;14.90;99.90;;;;;;5093872;28;20035;-74
2022/07/31 04:28:21;;;;;;;3.33;3.03;;;14.90;99.90;;;;;;5092616;28;20024;-72
2022/07/31 04:30:46;;;;;;;2.50;2.30;;;14.90;99.90;;;;;;5092585;28;20023;-76
2022/07/31 04:33:13;;;;;;;3.28;2.08;;;14.90;99.90;;;;;;5093838;28;20028;-72
2022/07/31 04:35:40;;;;;;;3.03;1.92;;;14.90;99.90;;;;;;5093861;28;20496;-75
2022/07/31 04:38:06;;;;;;;2.92;2.67;;;14.80;99.90;;;;;;5092414;28;20035;-72
2022/07/31 04:40:32;;;;;;;2.67;2.45;;;14.80;99.90;;;;;;5093619;28;20028;-72
2022/07/31 04:42:57;;;;;;;2.22;2.13;;;14.70;99.90;;;;;;5092504;28;20051;-73
2022/07/31 04:45:23;;;;;;;2.83;1.95;;;14.80;99.90;;;;;;5093452;28;20473;-72
2022/07/31 04:47:49;;;;;;;2.40;2.20;;;14.80;99.90;;;;;;5093623;28;20499;-75
2022/07/31 04:50:15;;;;;;;2.30;2.20;;;14.70;99.90;;;;;;5092250;28;20073;-73
2022/07/31 04:52:40;;;;;;;2.47;2.38;;;14.70;99.90;;;;;;5093340;28;20052;-76
2022/07/31 04:55:06;;;;;;;2.75;2.55;;;14.70;99.90;;;;;;5092260;28;20035;-73
2022/07/31 04:57:32;;;;;;;2.50;2.30;;;14.70;99.90;;;;;;5093429;28;20032;-75
2022/07/31 04:59:58;;;;;;;2.85;2.65;;;14.70;99.90;;;;;;5092282;28;20411;-73
2022/07/31 05:02:24;;;;;;;2.10;2.00;;;14.70;99.90;;;;;;5092001;28;20020;-75
2022/07/31 05:04:49;;;;;;;3.55;2.40;;;14.70;99.90;;;;;;5093242;28;20031;-76
2022/07/31 05:07:15;;;;;;;3.42;2.17;;;14.60;99.90;;;;;;5093218;28;20020;-72
2022/07/31 05:09:41;;;;;;;2.20;1.75;;;14.60;99.90;;;;;;5093456;28;20091;-76
2022/07/31 05:12:07;;;;;;;1.90;1.80;;;14.60;99.90;;;;;;5093277;28;20024;-72
2022/07/31 05:14:33;;;;;;;2.95;2.55;;;14.60;99.90;;;;;;5093323;28;20085;-73
2022/07/31 05:16:58;;;;;;;2.03;1.92;;;14.60;99.90;;;;;;5091874;28;20024;-72
2022/07/31 05:19:28;;;;;;;2.38;1.65;;;14.60;99.90;;;;;;5093261;28;20099;-75
2022/07/31 05:21:54;;;;;;;1.70;1.60;;;14.60;99.90;;;;;;5093076;28;20031;-73
2022/07/31 05:24:21;;;;;;;2.08;1.77;;;14.60;99.90;;;;;;5094537;28;20028;-72
2022/07/31 05:26:46;;;;;;;2.00;1.67;;;14.60;99.90;;;;;;5097282;28;20485;-72
2022/07/31 05:29:12;;;;;;;1.83;1.73;;;14.60;99.90;;;;;;5097334;28;20055;-75
2022/07/31 05:31:38;;;;;;;1.90;1.65;;;14.60;99.90;;;;;;5097277;28;20020;-72
2022/07/31 05:34:03;;;;;;;4.50;1.63;;;14.60;99.90;;;;;;5097264;28;20016;-72
2022/07/31 05:36:29;;;;;;;1.70;1.60;;;14.60;99.90;;;;;;5096020;28;20032;-72
2022/07/31 05:38:55;;;;;;;2.97;1.55;;;14.60;99.90;;;;;;5097204;28;20027;-72
2022/07/31 05:41:21;;;;;;;2.38;1.80;;;14.60;99.90;;;;;;5097129;28;20027;-73
2022/07/31 05:43:46;;;;;;;1.70;1.60;;;14.60;99.90;;;;;;5097122;28;20024;-72
2022/07/31 05:46:16;;;;;;;1.95;1.70;;;14.70;99.90;;;;;;5096862;28;20040;-72
2022/07/31 05:48:43;;;;;;;1.70;1.30;;;14.60;99.90;;;;;;5096833;28;20020;-75
2022/07/31 05:51:10;;;;;;;1.50;1.40;;;14.60;99.90;;;;;;5096842;28;20026;-75
2022/07/31 05:53:37;;;;;;;0.98;0.98;;;14.60;99.90;;;;;;5095183;28;20040;-75
2022/07/31 05:56:04;;;;;;;1.42;1.30;;;14.60;99.90;;;;;;5095512;28;20032;-75
2022/07/31 05:58:30;;;;;;;1.23;1.13;;;14.60;99.90;;;;;;5095347;28;20020;-71
2022/07/31 06:00:56;;;;;;;1.08;1.08;;;14.70;99.90;;;;;;5096884;28;20062;-72
2022/07/31 06:03:23;;;;;;;0.90;0.90;;;14.70;99.90;;;;;;5096650;28;20031;-72
2022/07/31 06:05:50;;;;;;;1.10;0.80;;;14.70;99.90;;;;;;5096535;28;20485;-72
2022/07/31 06:08:16;;;;;;;0.65;0.63;;;14.70;99.90;;;;;;5095089;28;20028;-71
2022/07/31 06:10:42;;;;;;;0.77;0.77;;;14.70;99.90;;;;;;5095179;28;20052;-73
2022/07/31 06:13:08;;;;;;;0.60;0.60;;;14.80;99.90;;;;;;5096389;28;20044;-72
2022/07/31 06:15:33;;;;;;;1.20;1.10;;;14.70;99.90;;;;;;5095277;28;20081;-73
2022/07/31 06:17:59;;;;;;;0.50;0.50;;;14.70;99.90;;;;;;5095006;28;20470;-72
2022/07/31 06:20:25;;;;;;;0.80;0.80;;;14.70;99.90;;;;;;5096265;28;20389;-76
2022/07/31 06:22:51;;;;;;;0.80;0.80;;;14.60;99.90;;;;;;5096194;28;20031;-75
2022/07/31 06:25:17;;;;;;;0.50;0.50;;;14.50;99.90;;;;;;5096448;28;20040;-73
2022/07/31 06:27:42;;;;;;;0.63;0.63;;;14.50;99.90;;;;;;5094921;28;20111;-76
2022/07/31 06:30:09;;;;;;;0.80;0.80;;;14.50;99.90;;;;;;5096239;28;20027;-76
2022/07/31 06:32:35;;;;;;;0.50;0.50;;;14.50;99.90;;;;;;5094655;28;20028;-75
2022/07/31 06:35:02;;;;;;;0.52;0.52;;;14.50;99.90;;;;;;5096176;28;20055;-76
2022/07/31 06:37:28;;;;;;;0.60;0.60;;;14.50;99.90;;;;;;5096066;28;20104;-72
2022/07/31 06:39:53;;;;;;;0.52;0.52;;;14.50;99.90;;;;;;5095977;28;20436;-76
2022/07/31 06:42:21;;;;;;;1.02;1.02;;;14.50;99.90;;;;;;5094575;28;20481;-76
2022/07/31 06:44:47;;;;;;;0.90;0.82;;;14.50;99.90;;;;;;5095760;28;20043;-74
2022/07/31 06:47:14;;;;;;;0.82;0.80;;;14.50;99.90;;;;;;5095743;28;20016;-72
2022/07/31 06:49:40;;;;;;;1.27;0.60;;;14.40;99.90;;;;;;5094594;28;20023;-72
2022/07/31 06:52:06;;;;;;;0.50;0.50;;;14.40;99.90;;;;;;5095439;28;20060;-75
2022/07/31 06:54:32;;;;;;;0.60;0.60;;;14.40;99.90;;;;;;5095708;28;20028;-72
2022/07/31 06:56:57;;;;;;;0.50;0.50;;;14.30;99.90;;;;;;5095781;28;20443;-75
2022/07/31 06:59:23;;;;;;;0.60;0.60;;;14.40;99.90;;;;;;5095729;28;20020;-75
2022/07/31 07:01:49;;;;;;;0.70;0.70;;;14.30;99.90;;;;;;5095647;28;20032;-76
2022/07/31 07:04:14;;;;;;;0.60;0.60;;;14.40;99.90;;;;;;5095506;28;20028;-74
2022/07/31 07:06:40;;;;;;;0.63;0.63;;;14.40;99.90;;;;;;5095296;28;20024;-76
2022/07/31 07:09:06;;;;;;;0.60;0.60;;;14.40;99.90;;;;;;5094090;28;20244;-77
2022/07/31 07:11:31;;;;;;;0.70;0.70;;;14.40;99.90;;;;;;5095369;28;20024;-75
2022/07/31 07:13:57;;;;;;;2.10;1.00;;;14.40;99.90;;;;;;5095152;28;20027;-72
2022/07/31 07:16:23;;;;;;;1.05;0.95;;;14.40;99.90;;;;;;5094065;28;20047;-76
2022/07/31 07:18:49;;;;;;;0.90;0.90;;;14.40;99.90;;;;;;5093801;28;20024;-75
2022/07/31 07:21:14;;;;;;;1.17;1.02;;;14.40;99.90;;;;;;5095227;28;20023;-73
2022/07/31 07:23:40;;;;;;;1.05;0.95;;;14.30;99.90;;;;;;5095015;28;20056;-72
2022/07/31 07:26:07;;;;;;;1.23;1.13;;;14.30;99.90;;;;;;5095131;28;20103;-73
2022/07/31 07:28:33;;;;;;;1.20;1.20;;;14.40;99.90;;;;;;5094891;28;20474;-72
2022/07/31 07:30:59;;;;;;;1.90;1.80;;;14.30;99.90;;;;;;5095132;28;20024;-72
2022/07/31 07:33:25;;;;;;;1.90;1.80;;;14.30;99.90;;;;;;5094981;28;20023;-72
2022/07/31 07:35:50;;;;;;;1.85;1.75;;;14.30;99.90;;;;;;5095059;28;20024;-76
2022/07/31 07:38:16;;;;;;;2.10;2.00;;;14.20;99.90;;;;;;5093508;28;20118;-73
2022/07/31 07:40:42;;;;;;;2.58;2.10;;;14.10;99.90;;;;;;5094838;28;20111;-73
2022/07/31 07:43:08;;;;;;;1.73;1.63;;;14.20;99.90;;;;;;5093461;28;20024;-72
2022/07/31 07:45:34;;;;;;;1.98;1.88;;;14.20;99.90;;;;;;5094594;28;20031;-73
2022/07/31 07:47:59;;;;;;;3.72;1.83;;;14.10;99.90;;;;;;5092704;28;20043;-75
2022/07/31 07:50:25;;;;;;;2.33;1.73;;;14.20;99.90;;;;;;5094549;28;20024;-75
2022/07/31 07:52:51;;;;;;;1.92;1.83;;;14.10;99.90;;;;;;5094305;28;20181;-72
2022/07/31 07:55:17;;;;;;;2.28;2.17;;;14.10;99.90;;;;;;5093230;28;20506;-72
2022/07/31 07:57:44;;;;;;;2.28;2.00;;;14.20;99.90;;;;;;5094453;28;20045;-75
2022/07/31 08:00:11;;;;;;;2.13;1.92;;;14.10;99.90;;;;;;5094479;28;20496;-72
2022/07/31 08:02:37;;;;;;;1.60;1.60;;;14.10;99.90;;;;;;5094408;28;20028;-76
2022/07/31 08:05:04;;;;;;;1.63;1.52;;;14.10;99.90;;;;;;5092902;28;20039;-73
2022/07/31 08:07:31;;;;;;;1.80;1.70;;;14.10;99.90;;;;;;5094207;28;20074;-75
2022/07/31 08:09:58;;;;;;;2.97;1.90;;;14.10;99.90;;;;;;5092903;28;20099;-72
2022/07/31 08:12:24;;;;;;;1.40;1.33;;;14.20;99.90;;;;;;5094231;28;20035;-72
2022/07/31 08:14:50;;;;;;;1.50;1.33;;;14.10;99.90;;;;;;5094150;28;20024;-75
2022/07/31 08:17:16;;;;;;;1.50;1.20;;;14.10;99.90;;;;;;5094171;28;20034;-72
2022/07/31 08:19:41;;;;;;;1.17;1.17;;;14.10;99.90;;;;;;5094005;28;20024;-74
2022/07/31 08:22:07;;;;;;;1.33;1.33;;;14.20;99.90;;;;;;5094076;28;20350;-72
2022/07/31 08:24:33;;;;;;;1.48;1.48;;;14.30;99.90;;;;;;5093782;28;20036;-72
2022/07/31 08:29:44;;;;;;;1.10;1.10;;;14.40;99.90;;;;;;5094214;28;20508;-72
2022/07/31 08:32:13;;;;;;;1.52;1.42;;;14.50;99.90;;;;;;5093880;28;20012;-76
2022/07/31 08:34:39;;;;;;;1.67;1.10;;;14.60;99.90;;;;;;5092428;28;20023;-76
2022/07/31 08:37:05;;;;;;;1.10;1.10;;;14.60;99.90;;;;;;5093704;28;20077;-76
2022/07/31 08:39:32;;;;;;;0.90;0.90;;;14.60;99.90;;;;;;5093719;28;20032;-72
2022/07/31 08:41:58;;;;;;;0.70;0.70;;;14.60;99.90;;;;;;5093704;28;20031;-72
2022/07/31 08:44:24;;;;;;;1.05;1.00;;;14.50;99.90;;;;;;5093477;28;20091;-76
2022/07/31 08:46:53;;;;;;;1.00;1.00;;;14.60;99.90;;;;;;5093644;28;20055;-76
2022/07/31 08:49:23;;;;;;;0.85;0.82;;;14.60;99.90;;;;;;5093467;28;20061;-72
2022/07/31 08:51:50;;;;;;;0.70;0.70;;;14.60;99.90;;;;;;5092746;28;20016;-71
2022/07/31 08:54:17;;;;;;;0.80;0.80;;;14.60;99.90;;;;;;5091858;28;20021;-76
2022/07/31 08:56:45;;;;;;;0.80;0.80;;;14.60;99.90;;;;;;5093328;28;20488;-71
2022/07/31 08:59:10;;;;;;;1.00;0.90;;;14.60;99.90;;;;;;5092506;28;20020;-71
2022/07/31 09:01:36;;;;;;;1.00;1.00;;;14.60;99.90;;;;;;5092014;28;20496;-72
2022/07/31 09:04:03;;;;;;;0.90;0.90;;;14.70;99.90;;;;;;5091889;28;20027;-72
2022/07/31 09:06:29;;;;;;;1.55;0.98;;;14.70;99.90;;;;;;5093105;28;20020;-77
2022/07/31 09:08:55;;;;;;;0.90;0.90;;;14.70;99.90;;;;;;5092502;28;20104;-77
2022/07/31 09:11:22;;;;;;;0.90;0.90;;;14.60;99.90;;;;;;5090064;28;20028;-77
2022/07/31 09:13:59;;;;;;;1.00;1.00;;;14.70;99.90;;;;;;5091281;28;20354;-77
2022/07/31 09:16:26;;;;;;;0.90;0.90;;;14.70;99.90;;;;;;5091862;28;20024;-77
2022/07/31 09:18:55;;;;;;;1.10;1.00;;;14.80;99.90;;;;;;5092545;28;20024;-76
2022/07/31 09:21:21;;;;;;;1.10;1.10;;;14.90;99.90;;;;;;5092593;28;20023;-76
2022/07/31 09:23:46;;;;;;;2.33;1.00;;;14.90;99.90;;;;;;5092356;28;20020;-76
2022/07/31 09:26:12;;;;;;;0.90;0.90;;;15.00;99.90;;;;;;5091619;28;20040;-76
2022/07/31 09:28:48;;;;;;;0.82;0.82;;;15.00;99.90;;;;;;5092902;28;20377;-76
2022/07/31 09:31:14;;;;;;;0.82;0.82;;;15.00;99.90;;;;;;5092997;28;20031;-76
2022/07/31 09:33:44;;;;;;;1.00;0.90;;;14.90;99.90;;;;;;5093108;28;20102;-76
2022/07/31 09:36:10;;;;;;;0.70;0.70;;;14.90;99.90;;;;;;5093034;28;20065;-72
2022/07/31 09:38:39;;;;;;;0.95;0.95;;;14.90;99.90;;;;;;5093041;28;20029;-72
2022/07/31 09:41:17;;;;;;;2.80;1.10;;;14.80;99.90;;;;;;5091513;28;20020;-72
2022/07/31 09:43:52;;;;;;;1.05;1.05;;;14.80;99.90;;;;;;5092869;28;20017;-72
2022/07/31 09:46:18;;;;;;;0.98;0.88;;;14.80;99.90;;;;;;5092520;28;20036;-72
2022/07/31 09:48:51;;;;;;;0.70;0.70;;;14.80;99.90;;;;;;5092549;28;20036;-76
2022/07/31 09:51:16;;;;;;;1.42;0.80;;;14.80;99.90;;;;;;5091535;28;20031;-76
2022/07/31 09:53:56;;;;;;;0.80;0.80;;;14.80;99.90;;;;;;5091421;28;20040;-72
2022/07/31 09:56:32;;;;;;;1.20;0.80;;;14.70;99.90;;;;;;5092397;28;20031;-72
2022/07/31 09:58:59;;;;;;;0.85;0.85;;;14.70;99.90;;;;;;5092453;28;20016;-76
2022/07/31 10:01:26;;;;;;;1.10;1.10;;;14.60;99.90;;;;;;5092577;28;20549;-76
2022/07/31 10:03:54;;;;;;;1.00;1.00;;;14.70;99.90;;;;;;5092658;28;20032;-76
2022/07/31 10:06:24;;;;;;;1.05;1.05;;;14.70;99.90;;;;;;5091119;28;20051;-76
2022/07/31 10:08:50;;;;;;;1.38;1.27;;;14.70;99.90;;;;;;5092359;28;20116;-76
2022/07/31 10:11:20;;;;;;;1.02;1.02;;;14.70;99.90;;;;;;5094177;28;20106;-76
2022/07/31 10:13:48;;;;;;;0.88;0.88;;;14.80;99.90;;;;;;5096479;28;20035;-72
2022/07/31 10:16:14;;;;;;;1.00;1.00;;;14.70;99.90;;;;;;5096336;28;20020;-72
2022/07/31 10:18:44;;;;;;;0.98;0.98;;;14.80;99.90;;;;;;5096258;28;20024;-72
2022/07/31 10:21:10;;;;;;;1.08;1.08;;;14.70;99.90;;;;;;5096284;28;20020;-76
2022/07/31 10:23:40;;;;;;;1.52;1.10;;;14.70;99.90;;;;;;5094649;28;20043;-76
2022/07/31 10:26:07;;;;;;;0.80;0.80;;;14.80;99.90;;;;;;5095490;28;20035;-76
2022/07/31 10:28:36;;;;;;;1.20;1.10;;;14.70;99.90;;;;;;5095953;28;20067;-76
2022/07/31 10:31:02;;;;;;;0.90;0.90;;;14.80;99.90;;;;;;5095954;28;20028;-76
2022/07/31 10:33:28;;;;;;;0.98;0.98;;;14.90;99.90;;;;;;5095003;28;20535;-76
2022/07/31 10:36:18;;;;;;;0.82;0.82;;;14.90;99.90;;;;;;5093506;28;20031;-72
2022/07/31 10:38:51;;;;;;;1.15;1.10;;;14.80;99.90;;;;;;5094955;28;20107;-72
2022/07/31 10:41:20;;;;;;;;;;;14.90;99.90;;;;;;5095054;28;20020;-72
2022/07/31 10:43:57;;;;;;;0.90;0.90;;;15.00;99.90;;;;;;5093986;28;19904;-72
2022/07/31 10:46:30;;;;;;;1.13;1.13;;;14.90;99.90;;;;;;5095222;28;20064;-72
2022/07/31 10:48:57;;;;;;;1.38;1.02;;;14.90;99.90;;;;;;5094627;28;20477;-76
2022/07/31 10:51:23;;;;;;;1.23;1.10;;;14.90;99.90;;;;;;5088990;28;20063;-75
2022/07/31 10:53:58;;;;;;;1.00;1.00;;;14.90;99.90;;;;;;5094412;28;20413;-76
2022/07/31 10:56:24;;;;;;;1.27;1.27;;;15.00;99.90;;;;;;5091953;28;20024;-72
2022/07/31 10:58:52;;;;;;;1.15;1.05;;;15.00;99.90;;;;;;5094166;28;20099;-72
2022/07/31 11:01:18;;;;;;;1.02;1.02;;;15.00;99.90;;;;;;5093352;28;20020;-72
2022/07/31 11:03:48;;;;;;;1.02;0.90;;;15.10;99.90;;;;;;5094144;28;20023;-72
2022/07/31 11:06:15;;;;;;;1.25;1.08;;;15.00;99.90;;;;;;5094352;28;20050;-72
2022/07/31 11:08:53;;;;;;;2.25;1.20;;;15.10;99.90;;;;;;5094463;28;20012;-73
2022/07/31 11:11:31;;;;;;;0.85;0.85;;;15.10;99.90;;;;;;5093790;28;20021;-72
2022/07/31 11:13:59;;;;;;;3.50;0.98;;;14.90;99.90;;;;;;5095290;28;20020;-76
2022/07/31 11:16:25;;;;;;;1.70;1.13;;;15.00;99.90;;;;;;5093821;28;20012;-72
2022/07/31 11:18:58;;;;;;;1.00;0.95;;;15.10;99.90;;;;;;5095210;28;20059;-72
2022/07/31 11:21:34;;;;;;;0.93;0.93;;;15.10;99.90;;;;;;5093199;28;20054;-72
2022/07/31 11:24:00;;;;;;;1.00;1.00;;;15.00;99.90;;;;;;5094890;28;20031;-76
2022/07/31 11:26:26;;;;;;;1.40;1.17;;;15.00;99.90;;;;;;5094483;28;20032;-76
2022/07/31 11:28:51;;;;;;;6.80;1.27;;;15.10;99.90;;;;;;5094449;28;20028;-76
2022/07/31 11:31:17;;;;;;;1.38;0.80;;;15.00;99.90;;;;;;5094490;28;20024;-72
2022/07/31 11:33:45;;;;;;;1.73;0.80;;;15.10;99.90;;;;;;5094530;28;20095;-76
2022/07/31 11:36:25;;;;;;;3.08;1.55;;;15.10;99.90;;;;;;5094710;28;20026;-76
2022/07/31 11:38:57;;;;;;;4.30;1.25;;;15.10;99.90;;;;;;5094320;28;20028;-77
2022/07/31 11:41:29;;;;;;;1.00;1.00;;;15.20;99.90;;;;;;5094329;28;20024;-72
2022/07/31 11:43:56;;;;;;;1.00;1.00;;;15.20;99.90;;;;;;5091701;28;20521;-72
2022/07/31 11:46:28;;;;;;;1.02;1.02;;;15.10;99.90;;;;;;5094064;28;20020;-73
2022/07/31 11:48:55;;;;;;;1.17;1.08;;;15.10;99.90;;;;;;5091455;28;20023;-72
2022/07/31 11:51:22;;;;;;;1.60;1.50;;;15.00;99.90;;;;;;5093207;28;20423;-73
2022/07/31 11:53:49;;;;;;;1.70;1.60;;;15.00;99.90;;;;;;5093154;28;20043;-75
2022/07/31 11:56:16;;;;;;;1.20;1.20;;;15.00;99.90;;;;;;5093167;28;20028;-76
2022/07/31 11:58:50;;;;;;;2.00;1.90;;;15.00;99.90;;;;;;5092810;28;20506;-73
2022/07/31 12:01:16;;;;;;;2.17;1.92;;;15.00;99.90;;;;;;5094008;28;20023;-72
2022/07/31 12:03:43;;;;;;;1.90;1.80;;;14.90;99.90;;;;;;5092518;28;20024;-72
2022/07/31 12:06:10;;;;;;;2.05;1.95;;;14.90;99.90;;;;;;5093717;28;20032;-73
2022/07/31 12:08:36;;;;;;;1.75;1.65;;;14.90;99.90;;;;;;5093261;28;20058;-72
2022/07/31 12:11:04;;;;;;;2.10;2.00;;;14.90;99.90;;;;;;5093517;28;20028;-73
2022/07/31 12:13:31;;;;;;;2.40;2.20;;;14.90;99.90;;;;;;5093491;28;20031;-72
2022/07/31 12:15:58;;;;;;;3.53;2.40;;;15.00;99.90;;;;;;5094136;28;20420;-73
2022/07/31 12:18:25;;;;;;;2.10;1.95;;;15.00;99.90;;;;;;5093209;28;20054;-71
2022/07/31 12:20:57;;;;;;;2.70;2.60;;;15.10;99.90;;;;;;5093648;28;20034;-76
2022/07/31 12:23:24;;;;;;;1.90;1.80;;;15.10;99.90;;;;;;5092997;28;20090;-76
2022/07/31 12:25:50;;;;;;;2.10;2.00;;;15.20;99.90;;;;;;5092827;28;20112;-72
2022/07/31 12:28:16;;;;;;;2.20;2.10;;;15.10;99.90;;;;;;5091861;28;20024;-72
2022/07/31 12:30:43;;;;;;;2.60;2.40;;;15.10;99.90;;;;;;5091756;28;20020;-72
2022/07/31 12:33:11;;;;;;;6.47;5.88;;;15.10;99.90;;;;;;5076997;28;20043;-76
2022/07/31 12:35:41;;;;;;;7.20;6.50;;;15.00;99.90;;;;;;5090693;28;20069;-76
2022/07/31 12:38:08;;;;;;;8.70;7.95;;;14.90;99.90;;;;;;5089494;28;20012;-72
2022/07/31 12:40:35;;;;;;;9.90;9.00;;;14.90;99.90;;;;;;5092222;28;20094;-72
2022/07/31 12:43:01;;;;;;;10.98;9.88;;;14.80;99.90;;;;;;5093239;28;20455;-76
2022/07/31 12:45:37;;;;;;;11.75;10.55;;;14.80;99.90;;;;;;5092054;28;20061;-73